sensor_id;sensor_type;location;lat;lon;timestamp;temperature;humidity
8563;DHT22;16392;52.508;13.468;2023-04-24T00:02:12;11.60;99.90
8563;DHT22;16392;52.508;13.468;2023-04-24T00:04:39;11.60;99.90
8563;DHT22;16392;52.508;13.468;2023-04-24T00:07:06;11.50;99.90
8563;DHT22;16392;52.508;13.468;2023-04-24T00:09:33;11.60;99.90
8563;DHT22;16392;52.508;13.468;2023-04-24T00:11:59;11.50;99.90
8563;DHT22;16392;52.508;13.468;2023-04-24T00:14:29;11.60;99.90
8563;DHT22;16392;52.508;13.468;2023-04-24T00:16:56;11.60;99.90
8563;DHT22;16392;52.508;13.468;2023-04-24T00:19:22;11.60;99.90
8563;DHT22;16392;52.508;13.468;2023-04-24T00:21:49;11.60;99.90
8563;DHT22;16392;52.508;13.468;2023-04-24T00:24:16;11.50;99.90
8563;DHT22;16392;52.508;13.468;2023-04-24T00:26:43;11.50;99.90
8563;DHT22;16392;52.508;13.468;2023-04-24T00:29:10;11.40;99.90
8563;DHT22;16392;52.508;13.468;2023-04-24T00:31:38;11.30;99.90
8563;DHT22;16392;52.508;13.468;2023-04-24T00:34:05;11.30;99.90
8563;DHT22;16392;52.508;13.468;2023-04-24T00:39:01;11.30;99.90
8563;DHT22;16392;52.508;13.468;2023-04-24T00:41:28;11.30;99.90
8563;DHT22;16392;52.508;13.468;2023-04-24T00:43:55;11.30;99.90
8563;DHT22;16392;52.508;13.468;2023-04-24T00:46:22;11.30;99.90
8563;DHT22;16392;52.508;13.468;2023-04-24T00:48:50;11.30;99.90
8563;DHT22;16392;52.508;13.468;2023-04-24T00:51:17;11.20;99.90
8563;DHT22;16392;52.508;13.468;2023-04-24T00:53:43;11.20;99.90
8563;DHT22;16392;52.508;13.468;2023-04-24T00:56:10;11.10;99.90
8563;DHT22;16392;52.508;13.468;2023-04-24T00:58:37;11.10;99.90
8563;DHT22;16392;52.508;13.468;2023-04-24T01:01:09;11.10;99.90
8563;DHT22;16392;52.508;13.468;2023-04-24T01:03:37;11.10;99.90
8563;DHT22;16392;52.508;13.468;2023-04-24T01:06:05;11.10;99.90
8563;DHT22;16392;52.508;13.468;2023-04-24T01:08:32;11.10;99.90
8563;DHT22;16392;52.508;13.468;2023-04-24T01:10:59;11.00;99.90
8563;DHT22;16392;52.508;13.468;2023-04-24T01:13:39;11.00;99.90
8563;DHT22;16392;52.508;13.468;2023-04-24T01:16:06;11.00;99.90
8563;DHT22;16392;52.508;13.468;2023-04-24T01:18:32;11.00;99.90
8563;DHT22;16392;52.508;13.468;2023-04-24T01:20:59;11.00;99.90
8563;DHT22;16392;52.508;13.468;2023-04-24T01:23:31;11.10;99.90
8563;DHT22;16392;52.508;13.468;2023-04-24T01:25:57;11.10;99.90
8563;DHT22;16392;52.508;13.468;2023-04-24T01:28:24;11.10;99.90
8563;DHT22;16392;52.508;13.468;2023-04-24T01:30:51;11.10;99.90
8563;DHT22;16392;52.508;13.468;2023-04-24T01:33:19;11.10;99.90
8563;DHT22;16392;52.508;13.468;2023-04-24T01:35:50;11.00;99.90
8563;DHT22;16392;52.508;13.468;2023-04-24T01:38:16;11.00;99.90
8563;DHT22;16392;52.508;13.468;2023-04-24T01:40:45;11.00;99.90
8563;DHT22;16392;52.508;13.468;2023-04-24T01:43:11;11.00;99.90
8563;DHT22;16392;52.508;13.468;2023-04-24T01:45:38;11.00;99.90
8563;DHT22;16392;52.508;13.468;2023-04-24T01:48:05;11.00;99.90
8563;DHT22;16392;52.508;13.468;2023-04-24T01:50:32;11.00;99.90
8563;DHT22;16392;52.508;13.468;2023-04-24T01:52:58;11.00;99.90
8563;DHT22;16392;52.508;13.468;2023-04-24T01:55:25;11.00;99.90
8563;DHT22;16392;52.508;13.468;2023-04-24T01:57:53;10.90;99.90
8563;DHT22;16392;52.508;13.468;2023-04-24T02:00:21;10.90;99.90
8563;DHT22;16392;52.508;13.468;2023-04-24T02:02:48;10.90;99.90
8563;DHT22;16392;52.508;13.468;2023-04-24T02:05:15;10.90;99.90
8563;DHT22;16392;52.508;13.468;2023-04-24T02:07:41;10.90;99.90
8563;DHT22;16392;52.508;13.468;2023-04-24T02:10:09;10.90;99.90
8563;DHT22;16392;52.508;13.468;2023-04-24T02:12:36;11.00;99.90
8563;DHT22;16392;52.508;13.468;2023-04-24T02:15:04;10.90;99.90
8563;DHT22;16392;52.508;13.468;2023-04-24T02:17:31;10.90;99.90
8563;DHT22;16392;52.508;13.468;2023-04-24T02:19:58;10.90;99.90
8563;DHT22;16392;52.508;13.468;2023-04-24T02:22:26;10.90;99.90
8563;DHT22;16392;52.508;13.468;2023-04-24T02:24:53;10.90;99.90
8563;DHT22;16392;52.508;13.468;2023-04-24T02:27:21;11.00;99.90
8563;DHT22;16392;52.508;13.468;2023-04-24T02:29:49;11.00;99.90
8563;DHT22;16392;52.508;13.468;2023-04-24T02:32:17;11.00;99.90
8563;DHT22;16392;52.508;13.468;2023-04-24T02:34:43;10.90;99.90
8563;DHT22;16392;52.508;13.468;2023-04-24T02:37:10;10.90;99.90
8563;DHT22;16392;52.508;13.468;2023-04-24T02:39:36;10.90;99.90
8563;DHT22;16392;52.508;13.468;2023-04-24T02:42:03;10.90;99.90
8563;DHT22;16392;52.508;13.468;2023-04-24T02:44:30;10.90;99.90
8563;DHT22;16392;52.508;13.468;2023-04-24T02:46:57;11.00;99.90
8563;DHT22;16392;52.508;13.468;2023-04-24T02:49:25;11.00;99.90
8563;DHT22;16392;52.508;13.468;2023-04-24T02:51:52;11.10;99.90
8563;DHT22;16392;52.508;13.468;2023-04-24T02:54:19;11.10;99.90
8563;DHT22;16392;52.508;13.468;2023-04-24T02:56:45;11.10;99.90
8563;DHT22;16392;52.508;13.468;2023-04-24T02:59:12;11.20;99.90
8563;DHT22;16392;52.508;13.468;2023-04-24T03:01:40;11.20;99.90
8563;DHT22;16392;52.508;13.468;2023-04-24T03:04:07;11.20;99.90
8563;DHT22;16392;52.508;13.468;2023-04-24T03:06:35;11.20;99.90
8563;DHT22;16392;52.508;13.468;2023-04-24T03:09:02;11.30;99.90
8563;DHT22;16392;52.508;13.468;2023-04-24T03:11:28;11.30;99.90
8563;DHT22;16392;52.508;13.468;2023-04-24T03:13:55;11.30;99.90
8563;DHT22;16392;52.508;13.468;2023-04-24T03:16:22;11.30;99.90
8563;DHT22;16392;52.508;13.468;2023-04-24T03:18:49;11.30;99.90
8563;DHT22;16392;52.508;13.468;2023-04-24T03:21:16;11.30;99.90
8563;DHT22;16392;52.508;13.468;2023-04-24T03:23:44;11.30;99.90
8563;DHT22;16392;52.508;13.468;2023-04-24T03:26:11;11.40;99.90
8563;DHT22;16392;52.508;13.468;2023-04-24T03:28:38;11.40;99.90
8563;DHT22;16392;52.508;13.468;2023-04-24T03:31:04;11.50;99.90
8563;DHT22;16392;52.508;13.468;2023-04-24T03:33:31;11.50;99.90
8563;DHT22;16392;52.508;13.468;2023-04-24T03:35:57;11.50;99.90
8563;DHT22;16392;52.508;13.468;2023-04-24T03:38:24;11.60;99.90
8563;DHT22;16392;52.508;13.468;2023-04-24T03:40:53;11.60;99.90
8563;DHT22;16392;52.508;13.468;2023-04-24T03:43:19;11.60;99.90
8563;DHT22;16392;52.508;13.468;2023-04-24T03:45:46;11.70;99.90
8563;DHT22;16392;52.508;13.468;2023-04-24T03:48:13;11.70;99.90
8563;DHT22;16392;52.508;13.468;2023-04-24T03:50:40;11.80;99.90
8563;DHT22;16392;52.508;13.468;2023-04-24T03:53:07;11.80;99.90
8563;DHT22;16392;52.508;13.468;2023-04-24T03:55:33;11.80;99.90
8563;DHT22;16392;52.508;13.468;2023-04-24T03:58:02;11.90;99.90
8563;DHT22;16392;52.508;13.468;2023-04-24T04:00:28;11.80;99.90
8563;DHT22;16392;52.508;13.468;2023-04-24T04:02:58;11.90;99.90
8563;DHT22;16392;52.508;13.468;2023-04-24T04:05:25;11.90;99.90
8563;DHT22;16392;52.508;13.468;2023-04-24T04:07:52;12.00;99.90
8563;DHT22;16392;52.508;13.468;2023-04-24T04:12:50;12.10;99.90
8563;DHT22;16392;52.508;13.468;2023-04-24T04:15:19;12.10;99.90
8563;DHT22;16392;52.508;13.468;2023-04-24T04:17:45;12.10;99.90
8563;DHT22;16392;52.508;13.468;2023-04-24T04:20:12;12.20;99.90
8563;DHT22;16392;52.508;13.468;2023-04-24T04:22:39;12.20;99.90
8563;DHT22;16392;52.508;13.468;2023-04-24T04:25:06;12.20;99.90
8563;DHT22;16392;52.508;13.468;2023-04-24T04:27:34;12.10;99.90
8563;DHT22;16392;52.508;13.468;2023-04-24T04:30:07;12.10;99.90
8563;DHT22;16392;52.508;13.468;2023-04-24T04:32:51;12.20;99.90
8563;DHT22;16392;52.508;13.468;2023-04-24T04:35:21;12.20;99.90
8563;DHT22;16392;52.508;13.468;2023-04-24T04:37:47;12.20;99.90
8563;DHT22;16392;52.508;13.468;2023-04-24T04:40:14;12.20;99.90
8563;DHT22;16392;52.508;13.468;2023-04-24T04:42:42;12.20;99.90
8563;DHT22;16392;52.508;13.468;2023-04-24T04:45:11;12.20;99.90
8563;DHT22;16392;52.508;13.468;2023-04-24T04:47:39;12.20;99.90
8563;DHT22;16392;52.508;13.468;2023-04-24T04:50:08;12.20;99.90
8563;DHT22;16392;52.508;13.468;2023-04-24T04:52:34;12.30;99.90
8563;DHT22;16392;52.508;13.468;2023-04-24T04:55:01;12.30;99.90
8563;DHT22;16392;52.508;13.468;2023-04-24T04:57:28;12.40;99.90
8563;DHT22;16392;52.508;13.468;2023-04-24T04:59:55;12.40;99.90
8563;DHT22;16392;52.508;13.468;2023-04-24T05:02:22;12.40;99.90
8563;DHT22;16392;52.508;13.468;2023-04-24T05:04:48;12.50;99.90
8563;DHT22;16392;52.508;13.468;2023-04-24T05:07:16;12.50;99.90
8563;DHT22;16392;52.508;13.468;2023-04-24T05:09:43;12.50;99.90
8563;DHT22;16392;52.508;13.468;2023-04-24T05:12:10;12.50;99.90
8563;DHT22;16392;52.508;13.468;2023-04-24T05:14:38;12.50;99.90
8563;DHT22;16392;52.508;13.468;2023-04-24T05:17:04;12.50;99.90
8563;DHT22;16392;52.508;13.468;2023-04-24T05:19:31;12.60;99.90
8563;DHT22;16392;52.508;13.468;2023-04-24T05:22:01;12.70;99.90
8563;DHT22;16392;52.508;13.468;2023-04-24T05:24:30;12.70;99.90
8563;DHT22;16392;52.508;13.468;2023-04-24T05:26:57;12.70;99.90
8563;DHT22;16392;52.508;13.468;2023-04-24T05:29:24;12.80;99.90
8563;DHT22;16392;52.508;13.468;2023-04-24T05:31:53;13.10;99.90
8563;DHT22;16392;52.508;13.468;2023-04-24T05:34:20;13.30;99.90
8563;DHT22;16392;52.508;13.468;2023-04-24T05:36:47;13.30;99.90
8563;DHT22;16392;52.508;13.468;2023-04-24T05:39:14;13.70;99.90
8563;DHT22;16392;52.508;13.468;2023-04-24T05:41:42;14.40;1.00
8563;DHT22;16392;52.508;13.468;2023-04-24T05:47:11;14.60;1.00
8563;DHT22;16392;52.508;13.468;2023-04-24T05:49:37;15.50;1.00
8563;DHT22;16392;52.508;13.468;2023-04-24T05:52:04;15.80;1.00
8563;DHT22;16392;52.508;13.468;2023-04-24T05:54:31;15.70;1.00
8563;DHT22;16392;52.508;13.468;2023-04-24T05:57:02;15.80;99.90
8563;DHT22;16392;52.508;13.468;2023-04-24T06:02:29;15.40;1.00
8563;DHT22;16392;52.508;13.468;2023-04-24T06:04:58;15.50;1.00
8563;DHT22;16392;52.508;13.468;2023-04-24T06:07:38;15.60;1.00
8563;DHT22;16392;52.508;13.468;2023-04-24T06:10:09;15.60;99.90
8563;DHT22;16392;52.508;13.468;2023-04-24T06:12:37;16.50;99.90
8563;DHT22;16392;52.508;13.468;2023-04-24T06:15:05;17.20;1.00
8563;DHT22;16392;52.508;13.468;2023-04-24T06:17:33;17.00;1.00
8563;DHT22;16392;52.508;13.468;2023-04-24T06:20:01;17.80;1.00
8563;DHT22;16392;52.508;13.468;2023-04-24T06:22:30;19.40;99.90
8563;DHT22;16392;52.508;13.468;2023-04-24T06:24:57;19.60;1.00
8563;DHT22;16392;52.508;13.468;2023-04-24T06:27:23;18.70;1.00
8563;DHT22;16392;52.508;13.468;2023-04-24T06:29:52;18.60;1.00
8563;DHT22;16392;52.508;13.468;2023-04-24T06:32:21;18.00;99.90
8563;DHT22;16392;52.508;13.468;2023-04-24T06:34:49;17.30;1.00
8563;DHT22;16392;52.508;13.468;2023-04-24T06:37:16;16.70;99.90
8563;DHT22;16392;52.508;13.468;2023-04-24T06:39:43;16.60;1.00
8563;DHT22;16392;52.508;13.468;2023-04-24T06:42:09;16.80;1.00
8563;DHT22;16392;52.508;13.468;2023-04-24T06:44:36;17.90;1.00
8563;DHT22;16392;52.508;13.468;2023-04-24T06:47:07;18.90;1.00
8563;DHT22;16392;52.508;13.468;2023-04-24T06:49:34;19.40;1.00
8563;DHT22;16392;52.508;13.468;2023-04-24T06:52:04;18.90;1.00
8563;DHT22;16392;52.508;13.468;2023-04-24T06:54:31;19.90;99.90
8563;DHT22;16392;52.508;13.468;2023-04-24T06:56:57;19.80;99.90
8563;DHT22;16392;52.508;13.468;2023-04-24T06:59:26;20.10;99.90
8563;DHT22;16392;52.508;13.468;2023-04-24T07:01:54;21.10;81.90
8563;DHT22;16392;52.508;13.468;2023-04-24T07:04:22;22.50;1.00
8563;DHT22;16392;52.508;13.468;2023-04-24T07:06:50;22.70;1.00
8563;DHT22;16392;52.508;13.468;2023-04-24T07:09:19;22.80;1.00
8563;DHT22;16392;52.508;13.468;2023-04-24T07:11:47;23.40;1.00
8563;DHT22;16392;52.508;13.468;2023-04-24T07:14:14;23.70;1.00
8563;DHT22;16392;52.508;13.468;2023-04-24T07:16:41;22.60;1.00
8563;DHT22;16392;52.508;13.468;2023-04-24T07:19:08;22.40;1.00
8563;DHT22;16392;52.508;13.468;2023-04-24T07:21:36;22.50;1.00
8563;DHT22;16392;52.508;13.468;2023-04-24T07:24:02;22.30;1.00
8563;DHT22;16392;52.508;13.468;2023-04-24T07:26:29;22.70;1.00
8563;DHT22;16392;52.508;13.468;2023-04-24T07:29:14;22.90;1.00
8563;DHT22;16392;52.508;13.468;2023-04-24T07:31:41;23.80;99.90
8563;DHT22;16392;52.508;13.468;2023-04-24T07:34:09;23.00;99.90
8563;DHT22;16392;52.508;13.468;2023-04-24T07:36:38;21.50;99.90
8563;DHT22;16392;52.508;13.468;2023-04-24T07:39:04;20.90;99.90
8563;DHT22;16392;52.508;13.468;2023-04-24T07:41:31;20.10;99.90
8563;DHT22;16392;52.508;13.468;2023-04-24T07:43:58;19.30;1.00
8563;DHT22;16392;52.508;13.468;2023-04-24T07:46:26;19.00;1.00
8563;DHT22;16392;52.508;13.468;2023-04-24T07:48:55;19.00;1.00
8563;DHT22;16392;52.508;13.468;2023-04-24T07:51:23;19.70;1.00
8563;DHT22;16392;52.508;13.468;2023-04-24T07:53:51;21.50;1.00
8563;DHT22;16392;52.508;13.468;2023-04-24T07:56:17;23.00;99.90
8563;DHT22;16392;52.508;13.468;2023-04-24T07:58:44;23.90;99.90
8563;DHT22;16392;52.508;13.468;2023-04-24T08:01:11;23.40;99.90
8563;DHT22;16392;52.508;13.468;2023-04-24T08:03:37;23.40;99.90
8563;DHT22;16392;52.508;13.468;2023-04-24T08:06:04;22.90;99.90
8563;DHT22;16392;52.508;13.468;2023-04-24T08:08:31;22.70;99.90
8563;DHT22;16392;52.508;13.468;2023-04-24T08:11:00;22.90;99.90
8563;DHT22;16392;52.508;13.468;2023-04-24T08:13:26;23.30;99.90
8563;DHT22;16392;52.508;13.468;2023-04-24T08:22:30;23.50;99.90
8563;DHT22;16392;52.508;13.468;2023-04-24T08:24:59;22.00;99.90
8563;DHT22;16392;52.508;13.468;2023-04-24T08:27:27;20.90;99.90
8563;DHT22;16392;52.508;13.468;2023-04-24T08:29:54;21.10;99.90
8563;DHT22;16392;52.508;13.468;2023-04-24T08:32:21;21.10;99.90
8563;DHT22;16392;52.508;13.468;2023-04-24T08:34:49;20.50;99.90
8563;DHT22;16392;52.508;13.468;2023-04-24T08:37:18;20.80;99.90
8563;DHT22;16392;52.508;13.468;2023-04-24T08:39:44;19.70;99.90
8563;DHT22;16392;52.508;13.468;2023-04-24T08:42:11;19.70;1.00
8563;DHT22;16392;52.508;13.468;2023-04-24T08:44:39;19.50;1.00
8563;DHT22;16392;52.508;13.468;2023-04-24T08:47:06;20.00;1.00
8563;DHT22;16392;52.508;13.468;2023-04-24T08:49:34;18.90;1.00
8563;DHT22;16392;52.508;13.468;2023-04-24T08:52:02;19.20;1.00
8563;DHT22;16392;52.508;13.468;2023-04-24T08:54:32;19.30;1.00
8563;DHT22;16392;52.508;13.468;2023-04-24T08:57:00;19.70;1.00
8563;DHT22;16392;52.508;13.468;2023-04-24T08:59:29;20.60;99.90
8563;DHT22;16392;52.508;13.468;2023-04-24T09:01:57;21.30;99.90
8563;DHT22;16392;52.508;13.468;2023-04-24T09:04:25;22.30;99.90
8563;DHT22;16392;52.508;13.468;2023-04-24T09:06:54;20.90;99.90
8563;DHT22;16392;52.508;13.468;2023-04-24T09:09:21;19.80;99.90
8563;DHT22;16392;52.508;13.468;2023-04-24T09:11:54;18.90;99.90
8563;DHT22;16392;52.508;13.468;2023-04-24T09:14:27;18.90;1.00
8563;DHT22;16392;52.508;13.468;2023-04-24T09:16:53;19.80;99.90
8563;DHT22;16392;52.508;13.468;2023-04-24T09:19:22;20.10;99.90
8563;DHT22;16392;52.508;13.468;2023-04-24T09:21:49;20.40;99.90
8563;DHT22;16392;52.508;13.468;2023-04-24T09:24:30;19.10;99.90
8563;DHT22;16392;52.508;13.468;2023-04-24T09:30:13;17.50;1.00
8563;DHT22;16392;52.508;13.468;2023-04-24T09:32:40;17.60;1.00
8563;DHT22;16392;52.508;13.468;2023-04-24T09:35:11;17.50;1.00
8563;DHT22;16392;52.508;13.468;2023-04-24T09:37:41;17.70;1.00
8563;DHT22;16392;52.508;13.468;2023-04-24T09:40:10;18.40;1.00
8563;DHT22;16392;52.508;13.468;2023-04-24T09:42:38;18.40;1.00
8563;DHT22;16392;52.508;13.468;2023-04-24T09:45:08;18.30;1.00
8563;DHT22;16392;52.508;13.468;2023-04-24T09:47:35;18.10;1.00
8563;DHT22;16392;52.508;13.468;2023-04-24T09:50:09;18.00;1.00
8563;DHT22;16392;52.508;13.468;2023-04-24T09:52:40;17.50;1.00
8563;DHT22;16392;52.508;13.468;2023-04-24T09:55:11;17.70;1.00
8563;DHT22;16392;52.508;13.468;2023-04-24T10:00:44;17.20;99.90
8563;DHT22;16392;52.508;13.468;2023-04-24T10:03:26;17.50;99.90
8563;DHT22;16392;52.508;13.468;2023-04-24T10:06:01;17.70;99.90
8563;DHT22;16392;52.508;13.468;2023-04-24T10:08:34;18.00;77.50
8563;DHT22;16392;52.508;13.468;2023-04-24T10:11:02;18.50;1.00
8563;DHT22;16392;52.508;13.468;2023-04-24T10:13:29;19.10;1.00
8563;DHT22;16392;52.508;13.468;2023-04-24T10:15:56;18.60;1.00
8563;DHT22;16392;52.508;13.468;2023-04-24T10:18:25;19.10;1.00
8563;DHT22;16392;52.508;13.468;2023-04-24T10:20:57;18.60;1.00
8563;DHT22;16392;52.508;13.468;2023-04-24T10:23:26;18.00;1.00
8563;DHT22;16392;52.508;13.468;2023-04-24T10:25:57;17.90;1.00
8563;DHT22;16392;52.508;13.468;2023-04-24T10:28:25;18.00;1.00
8563;DHT22;16392;52.508;13.468;2023-04-24T10:30:53;18.60;1.00
8563;DHT22;16392;52.508;13.468;2023-04-24T10:33:25;18.30;1.00
8563;DHT22;16392;52.508;13.468;2023-04-24T10:35:52;19.20;1.00
8563;DHT22;16392;52.508;13.468;2023-04-24T10:38:21;19.30;1.00
8563;DHT22;16392;52.508;13.468;2023-04-24T10:40:49;19.10;1.00
8563;DHT22;16392;52.508;13.468;2023-04-24T10:43:18;19.30;1.00
8563;DHT22;16392;52.508;13.468;2023-04-24T10:45:59;18.90;1.00
8563;DHT22;16392;52.508;13.468;2023-04-24T10:48:26;18.50;1.00
8563;DHT22;16392;52.508;13.468;2023-04-24T10:50:53;18.50;1.00
8563;DHT22;16392;52.508;13.468;2023-04-24T10:53:24;18.00;1.00
8563;DHT22;16392;52.508;13.468;2023-04-24T10:55:56;18.20;1.00
8563;DHT22;16392;52.508;13.468;2023-04-24T10:58:37;18.20;1.00
8563;DHT22;16392;52.508;13.468;2023-04-24T11:01:05;17.90;1.00
8563;DHT22;16392;52.508;13.468;2023-04-24T11:03:32;17.20;1.00
8563;DHT22;16392;52.508;13.468;2023-04-24T11:06:00;17.40;1.00
8563;DHT22;16392;52.508;13.468;2023-04-24T11:08:28;17.40;1.00
8563;DHT22;16392;52.508;13.468;2023-04-24T11:16:27;18.20;1.00
8563;DHT22;16392;52.508;13.468;2023-04-24T11:18:59;19.00;1.00
8563;DHT22;16392;52.508;13.468;2023-04-24T11:21:29;20.20;1.00
8563;DHT22;16392;52.508;13.468;2023-04-24T11:23:57;21.00;1.00
8563;DHT22;16392;52.508;13.468;2023-04-24T11:26:23;20.40;1.00
8563;DHT22;16392;52.508;13.468;2023-04-24T11:28:55;20.20;1.00
8563;DHT22;16392;52.508;13.468;2023-04-24T11:31:37;19.80;1.00
8563;DHT22;16392;52.508;13.468;2023-04-24T11:34:11;19.60;1.00
8563;DHT22;16392;52.508;13.468;2023-04-24T11:36:38;19.30;1.00
8563;DHT22;16392;52.508;13.468;2023-04-24T11:39:05;18.20;1.00
8563;DHT22;16392;52.508;13.468;2023-04-24T11:41:33;17.30;99.90
8563;DHT22;16392;52.508;13.468;2023-04-24T11:43:59;16.10;1.00
8563;DHT22;16392;52.508;13.468;2023-04-24T11:46:27;14.50;93.30
8563;DHT22;16392;52.508;13.468;2023-04-24T11:48:55;14.10;80.80
8563;DHT22;16392;52.508;13.468;2023-04-24T11:51:22;14.20;1.00
8563;DHT22;16392;52.508;13.468;2023-04-24T11:53:49;14.80;99.90
8563;DHT22;16392;52.508;13.468;2023-04-24T11:56:32;15.40;1.00
8563;DHT22;16392;52.508;13.468;2023-04-24T11:58:59;16.40;1.00
8563;DHT22;16392;52.508;13.468;2023-04-24T12:04:17;17.20;1.00
8563;DHT22;16392;52.508;13.468;2023-04-24T12:06:58;17.40;1.00
8563;DHT22;16392;52.508;13.468;2023-04-24T12:09:25;18.00;1.00
8563;DHT22;16392;52.508;13.468;2023-04-24T12:11:55;17.30;99.90
8563;DHT22;16392;52.508;13.468;2023-04-24T12:14:31;17.30;99.90
8563;DHT22;16392;52.508;13.468;2023-04-24T12:16:57;17.80;91.90
8563;DHT22;16392;52.508;13.468;2023-04-24T12:19:26;18.50;99.90
8563;DHT22;16392;52.508;13.468;2023-04-24T12:21:59;19.00;32.00
8563;DHT22;16392;52.508;13.468;2023-04-24T12:24:26;18.40;99.90
8563;DHT22;16392;52.508;13.468;2023-04-24T12:26:52;18.30;99.90
8563;DHT22;16392;52.508;13.468;2023-04-24T12:29:20;18.50;1.00
8563;DHT22;16392;52.508;13.468;2023-04-24T12:31:46;18.60;1.00
8563;DHT22;16392;52.508;13.468;2023-04-24T12:34:17;18.00;1.00
8563;DHT22;16392;52.508;13.468;2023-04-24T12:36:45;18.10;1.00
8563;DHT22;16392;52.508;13.468;2023-04-24T12:39:16;17.90;1.00
8563;DHT22;16392;52.508;13.468;2023-04-24T12:41:50;17.70;1.00
8563;DHT22;16392;52.508;13.468;2023-04-24T12:44:17;18.30;99.90
8563;DHT22;16392;52.508;13.468;2023-04-24T12:46:44;18.20;99.90
8563;DHT22;16392;52.508;13.468;2023-04-24T12:49:10;18.00;1.00
8563;DHT22;16392;52.508;13.468;2023-04-24T12:51:37;18.10;1.00
8563;DHT22;16392;52.508;13.468;2023-04-24T12:54:05;18.10;1.00
8563;DHT22;16392;52.508;13.468;2023-04-24T12:56:32;18.00;99.90
8563;DHT22;16392;52.508;13.468;2023-04-24T12:58:59;18.20;99.90
8563;DHT22;16392;52.508;13.468;2023-04-24T13:01:26;18.20;99.90
8563;DHT22;16392;52.508;13.468;2023-04-24T13:03:52;18.50;99.90
8563;DHT22;16392;52.508;13.468;2023-04-24T13:06:20;18.60;99.90
8563;DHT22;16392;52.508;13.468;2023-04-24T13:08:59;18.70;99.90
8563;DHT22;16392;52.508;13.468;2023-04-24T13:11:29;18.70;99.90
8563;DHT22;16392;52.508;13.468;2023-04-24T13:14:02;19.40;99.90
8563;DHT22;16392;52.508;13.468;2023-04-24T13:16:29;19.20;99.90
8563;DHT22;16392;52.508;13.468;2023-04-24T13:18:57;18.50;99.90
8563;DHT22;16392;52.508;13.468;2023-04-24T13:21:24;18.40;94.80
8563;DHT22;16392;52.508;13.468;2023-04-24T13:23:51;18.90;99.90
8563;DHT22;16392;52.508;13.468;2023-04-24T13:26:18;19.20;97.70
8563;DHT22;16392;52.508;13.468;2023-04-24T13:28:47;20.10;89.60
8563;DHT22;16392;52.508;13.468;2023-04-24T13:31:14;20.80;56.10
8563;DHT22;16392;52.508;13.468;2023-04-24T13:33:40;20.70;31.20
8563;DHT22;16392;52.508;13.468;2023-04-24T13:36:07;20.20;11.10
8563;DHT22;16392;52.508;13.468;2023-04-24T13:38:34;19.50;1.00
8563;DHT22;16392;52.508;13.468;2023-04-24T13:41:00;19.70;1.00
8563;DHT22;16392;52.508;13.468;2023-04-24T13:43:27;19.50;1.00
8563;DHT22;16392;52.508;13.468;2023-04-24T13:45:55;19.40;1.00
8563;DHT22;16392;52.508;13.468;2023-04-24T13:48:23;19.30;1.00
8563;DHT22;16392;52.508;13.468;2023-04-24T13:50:50;19.10;1.00
8563;DHT22;16392;52.508;13.468;2023-04-24T13:53:17;19.60;1.00
8563;DHT22;16392;52.508;13.468;2023-04-24T13:55:43;19.90;1.00
8563;DHT22;16392;52.508;13.468;2023-04-24T13:58:10;19.70;1.00
8563;DHT22;16392;52.508;13.468;2023-04-24T14:00:39;20.10;1.00
8563;DHT22;16392;52.508;13.468;2023-04-24T14:03:07;19.60;1.00
8563;DHT22;16392;52.508;13.468;2023-04-24T14:05:33;18.80;1.00
8563;DHT22;16392;52.508;13.468;2023-04-24T14:08:00;19.00;1.00
8563;DHT22;16392;52.508;13.468;2023-04-24T14:10:27;19.70;1.00
8563;DHT22;16392;52.508;13.468;2023-04-24T14:12:53;20.30;1.00
8563;DHT22;16392;52.508;13.468;2023-04-24T14:15:20;20.70;1.00
8563;DHT22;16392;52.508;13.468;2023-04-24T14:17:47;21.10;1.00
8563;DHT22;16392;52.508;13.468;2023-04-24T14:20:15;20.20;1.00
8563;DHT22;16392;52.508;13.468;2023-04-24T14:22:42;19.30;1.00
8563;DHT22;16392;52.508;13.468;2023-04-24T14:25:08;19.10;1.00
8563;DHT22;16392;52.508;13.468;2023-04-24T14:27:35;18.50;1.00
8563;DHT22;16392;52.508;13.468;2023-04-24T14:30:02;18.70;1.00
8563;DHT22;16392;52.508;13.468;2023-04-24T14:32:29;18.20;1.00
8563;DHT22;16392;52.508;13.468;2023-04-24T14:34:56;18.30;1.00
8563;DHT22;16392;52.508;13.468;2023-04-24T14:37:23;18.20;1.00
8563;DHT22;16392;52.508;13.468;2023-04-24T14:39:50;18.10;1.00
8563;DHT22;16392;52.508;13.468;2023-04-24T14:42:17;18.00;1.00
8563;DHT22;16392;52.508;13.468;2023-04-24T14:44:43;18.10;1.00
8563;DHT22;16392;52.508;13.468;2023-04-24T14:47:09;18.20;1.00
8563;DHT22;16392;52.508;13.468;2023-04-24T14:49:36;18.10;1.00
8563;DHT22;16392;52.508;13.468;2023-04-24T14:52:03;18.10;1.00
8563;DHT22;16392;52.508;13.468;2023-04-24T14:54:31;18.10;1.00
8563;DHT22;16392;52.508;13.468;2023-04-24T14:56:57;18.40;1.00
8563;DHT22;16392;52.508;13.468;2023-04-24T14:59:24;18.30;1.00
8563;DHT22;16392;52.508;13.468;2023-04-24T15:01:50;18.50;1.00
8563;DHT22;16392;52.508;13.468;2023-04-24T15:04:19;18.30;1.00
8563;DHT22;16392;52.508;13.468;2023-04-24T15:06:46;18.30;1.00
8563;DHT22;16392;52.508;13.468;2023-04-24T15:09:14;17.80;1.00
8563;DHT22;16392;52.508;13.468;2023-04-24T15:11:42;17.80;1.00
8563;DHT22;16392;52.508;13.468;2023-04-24T15:14:09;17.40;1.00
8563;DHT22;16392;52.508;13.468;2023-04-24T15:16:36;17.30;1.00
8563;DHT22;16392;52.508;13.468;2023-04-24T15:19:02;17.40;1.00
8563;DHT22;16392;52.508;13.468;2023-04-24T15:21:29;17.40;1.00
8563;DHT22;16392;52.508;13.468;2023-04-24T15:23:55;17.40;1.00
8563;DHT22;16392;52.508;13.468;2023-04-24T15:26:22;17.60;1.00
8563;DHT22;16392;52.508;13.468;2023-04-24T15:28:50;17.30;1.00
8563;DHT22;16392;52.508;13.468;2023-04-24T15:31:17;17.20;1.00
8563;DHT22;16392;52.508;13.468;2023-04-24T15:33:44;17.30;1.00
8563;DHT22;16392;52.508;13.468;2023-04-24T15:36:10;17.50;1.00
8563;DHT22;16392;52.508;13.468;2023-04-24T15:38:37;17.20;1.00
8563;DHT22;16392;52.508;13.468;2023-04-24T15:41:03;17.10;1.00
8563;DHT22;16392;52.508;13.468;2023-04-24T15:43:30;16.80;1.00
8563;DHT22;16392;52.508;13.468;2023-04-24T15:46:00;16.60;1.00
8563;DHT22;16392;52.508;13.468;2023-04-24T15:48:27;16.40;1.00
8563;DHT22;16392;52.508;13.468;2023-04-24T15:50:54;16.30;1.00
8563;DHT22;16392;52.508;13.468;2023-04-24T15:53:21;16.30;1.00
8563;DHT22;16392;52.508;13.468;2023-04-24T15:55:47;16.30;1.00
8563;DHT22;16392;52.508;13.468;2023-04-24T15:58:14;16.30;1.00
8563;DHT22;16392;52.508;13.468;2023-04-24T16:00:41;16.30;1.00
8563;DHT22;16392;52.508;13.468;2023-04-24T16:03:08;16.30;1.00
8563;DHT22;16392;52.508;13.468;2023-04-24T16:05:36;16.30;1.00
8563;DHT22;16392;52.508;13.468;2023-04-24T16:08:04;16.20;1.00
8563;DHT22;16392;52.508;13.468;2023-04-24T16:10:31;16.20;1.00
8563;DHT22;16392;52.508;13.468;2023-04-24T16:12:57;16.10;1.00
8563;DHT22;16392;52.508;13.468;2023-04-24T16:15:25;16.10;1.00